createdAt,value
2022-11-28T00:01:36.887Z,95146.59
2022-11-28T00:04:09.431Z,95150.44
2022-11-28T00:06:39.252Z,95135.94
2022-11-28T00:09:09.437Z,95128.97
2022-11-28T00:11:37.301Z,95135.88
2022-11-28T00:14:05.173Z,95139.16
2022-11-28T00:16:33.093Z,95132.50
2022-11-28T00:19:01.965Z,95133.69
2022-11-28T00:21:31.380Z,95130.50
2022-11-28T00:24:00.662Z,95127.69
2022-11-28T00:26:30.717Z,95141.03
2022-11-28T00:28:59.511Z,95154.94
2022-11-28T00:31:29.961Z,95158.19
2022-11-28T00:33:58.230Z,95167.38
2022-11-28T00:36:26.276Z,95169.09
2022-11-28T00:38:55.697Z,95166.22
2022-11-28T00:41:25.529Z,95157.69
2022-11-28T00:43:53.703Z,95154.50
2022-11-28T00:46:23.071Z,95144.66
2022-11-28T00:48:51.425Z,95136.38
2022-11-28T00:51:21.801Z,95114.53
2022-11-28T00:53:51.962Z,95128.00
2022-11-28T00:56:24.185Z,95131.63
2022-11-28T00:58:52.532Z,95133.69
2022-11-28T01:01:22.341Z,95133.69
2022-11-28T01:03:52.091Z,95116.72
2022-11-28T01:06:23.973Z,95115.28
2022-11-28T01:08:52.235Z,95109.06
2022-11-28T01:11:22.186Z,95118.16
2022-11-28T01:13:50.831Z,95107.63
2022-11-28T01:16:18.804Z,95113.94
2022-11-28T01:18:46.739Z,95111.34
2022-11-28T01:21:15.060Z,95106.78
2022-11-28T01:23:42.931Z,95114.56
2022-11-28T01:26:12.661Z,95110.28
2022-11-28T01:28:41.886Z,95115.50
2022-11-28T01:31:12.703Z,95115.03
2022-11-28T01:33:40.757Z,95112.38
2022-11-28T01:36:09.138Z,95108.91
2022-11-28T01:38:36.886Z,95106.03
2022-11-28T01:41:05.182Z,95098.09
2022-11-28T01:43:33.367Z,95105.91
2022-11-28T01:46:03.477Z,95090.66
2022-11-28T01:48:35.370Z,95086.72
2022-11-28T01:51:06.670Z,95074.47
2022-11-28T01:53:37.456Z,95071.03
2022-11-28T01:56:09.730Z,95083.50
2022-11-28T01:58:42.048Z,95109.38
2022-11-28T02:01:12.378Z,95131.63
2022-11-28T02:03:44.450Z,95115.69
2022-11-28T02:06:14.119Z,95125.97
2022-11-28T02:08:41.988Z,95104.13
2022-11-28T02:11:33.206Z,95095.78
2022-11-28T02:14:10.416Z,95106.03
2022-11-28T02:16:54.063Z,95102.06
2022-11-28T02:20:00.317Z,95100.59
2022-11-28T02:22:35.855Z,95097.84
2022-11-28T02:25:27.526Z,95101.63
2022-11-28T02:28:30.756Z,95098.03
2022-11-28T02:31:11.586Z,95090.41
2022-11-28T02:33:44.762Z,95092.28
2022-11-28T02:36:18.161Z,95084.38
2022-11-28T02:39:03.711Z,95081.19
2022-11-28T02:41:35.834Z,95076.63
2022-11-28T02:44:12.721Z,95070.88
2022-11-28T02:46:49.837Z,95074.06
2022-11-28T02:49:23.649Z,95064.53
2022-11-28T02:51:55.603Z,95052.34
2022-11-28T02:54:26.451Z,95046.31
2022-11-28T02:56:55.790Z,95039.16
2022-11-28T02:59:33.438Z,95056.56
2022-11-28T03:02:02.562Z,95057.88
2022-11-28T03:04:44.014Z,95052.00
2022-11-28T03:07:28.040Z,95042.63
2022-11-28T03:10:06.485Z,95066.09
2022-11-28T03:12:46.717Z,95052.31
2022-11-28T03:15:18.955Z,95049.94
2022-11-28T03:17:56.190Z,95049.81
2022-11-28T03:20:32.575Z,95054.38
2022-11-28T03:23:10.724Z,95044.22
2022-11-28T03:25:47.324Z,95036.44
2022-11-28T03:28:24.187Z,95018.69
2022-11-28T03:30:56.932Z,95022.50
2022-11-28T03:33:26.766Z,95018.53
2022-11-28T03:36:02.505Z,95018.69
2022-11-28T03:38:35.864Z,95016.31
2022-11-28T03:41:09.843Z,95003.94
2022-11-28T03:43:43.045Z,95005.50
2022-11-28T03:46:16.903Z,94990.56
2022-11-28T03:48:47.985Z,94990.56
2022-11-28T03:51:19.747Z,94977.88
2022-11-28T03:53:53.352Z,94987.25
2022-11-28T03:56:26.104Z,95001.66
2022-11-28T03:58:59.113Z,94998.94
2022-11-28T04:01:33.355Z,95001.44
2022-11-28T04:04:10.999Z,94979.13
2022-11-28T04:06:52.186Z,94984.91
2022-11-28T04:09:28.682Z,94990.16
2022-11-28T04:12:01.216Z,94988.97
2022-11-28T04:14:36.837Z,94977.44
2022-11-28T04:17:11.014Z,94975.84
2022-11-28T04:19:43.609Z,94986.59
2022-11-28T04:22:18.033Z,94972.56
2022-11-28T04:24:50.651Z,94974.91
2022-11-28T04:27:23.332Z,94964.63
2022-11-28T04:29:55.390Z,94962.47
2022-11-28T04:32:24.942Z,94970.03
2022-11-28T04:34:58.865Z,94957.94
2022-11-28T04:37:29.413Z,94960.66
2022-11-28T04:39:57.828Z,94970.25
2022-11-28T04:42:31.304Z,94958.13
2022-11-28T04:45:04.222Z,94970.03
2022-11-28T04:47:32.111Z,94983.75
2022-11-28T04:50:00.197Z,94963.34
2022-11-28T04:52:36.377Z,94959.22
2022-11-28T04:55:11.150Z,94929.28
2022-11-28T04:57:41.278Z,94947.50
2022-11-28T05:00:12.486Z,94940.47
2022-11-28T05:02:42.399Z,94946.22
2022-11-28T05:05:12.830Z,94952.56
2022-11-28T05:07:41.951Z,94990.25
2022-11-28T05:10:12.410Z,94982.41
2022-11-28T05:12:40.244Z,94989.91
2022-11-28T05:15:09.251Z,94994.28
2022-11-28T05:17:41.908Z,94979.56
2022-11-28T05:20:12.205Z,95006.28
2022-11-28T05:22:39.975Z,95011.56
2022-11-28T05:25:10.021Z,95016.88
2022-11-28T05:27:37.817Z,94982.03
2022-11-28T05:30:07.639Z,95019.81
2022-11-28T05:32:36.418Z,95012.94
2022-11-28T05:35:05.189Z,95003.97
2022-11-28T05:37:33.064Z,95009.84
2022-11-28T05:40:01.035Z,95010.69
2022-11-28T05:42:33.305Z,95017.28
2022-11-28T05:45:01.092Z,94998.34
2022-11-28T05:47:31.415Z,95009.81
2022-11-28T05:49:59.211Z,94998.03
2022-11-28T05:52:29.536Z,94987.88
2022-11-28T05:54:57.338Z,94989.97
2022-11-28T05:57:25.175Z,94986.63
2022-11-28T05:59:54.360Z,94972.84
2022-11-28T06:02:22.242Z,94987.56
2022-11-28T06:04:50.178Z,94962.72
2022-11-28T06:07:18.780Z,94971.63
2022-11-28T06:09:46.832Z,94976.97
2022-11-28T06:12:14.717Z,94957.47
2022-11-28T06:14:42.555Z,94969.38
2022-11-28T06:17:11.659Z,94969.69
2022-11-28T06:19:39.541Z,94973.66
2022-11-28T06:22:07.482Z,94983.50
2022-11-28T06:24:35.330Z,94976.84
2022-11-28T06:27:03.193Z,94964.47
2022-11-28T06:29:31.369Z,94955.75
2022-11-28T06:32:05.909Z,94936.41
2022-11-28T06:34:35.510Z,94943.72
2022-11-28T06:37:05.943Z,94957.94
2022-11-28T06:39:33.815Z,94951.31
2022-11-28T06:42:01.733Z,94962.56
2022-11-28T06:44:29.729Z,94967.31
2022-11-28T06:46:57.788Z,94959.25
2022-11-28T06:49:25.785Z,94947.81
2022-11-28T06:51:55.075Z,94947.66
2022-11-28T06:54:23.566Z,94948.78
2022-11-28T06:56:51.694Z,94949.53
2022-11-28T06:59:19.516Z,94950.56
2022-11-28T07:01:47.432Z,94959.06
2022-11-28T07:04:15.704Z,94950.81
2022-11-28T07:06:44.747Z,94947.03
2022-11-28T07:09:14.366Z,94947.19
2022-11-28T07:11:43.478Z,94947.66
2022-11-28T07:14:12.061Z,94942.75
2022-11-28T07:16:40.794Z,94942.28
2022-11-28T07:19:08.913Z,94958.44
2022-11-28T07:21:36.805Z,94949.53
2022-11-28T07:24:04.818Z,94959.72
2022-11-28T07:26:34.283Z,94973.81
2022-11-28T07:29:02.424Z,94967.31
2022-11-28T07:31:38.274Z,94962.56
2022-11-28T07:34:06.082Z,94959.22
2022-11-28T07:36:33.949Z,94941.75
2022-11-28T07:39:03.018Z,94949.06
2022-11-28T07:41:30.862Z,94959.38
2022-11-28T07:44:02.843Z,94947.91
2022-11-28T07:46:32.403Z,94947.75
2022-11-28T07:49:00.634Z,94951.06
2022-11-28T07:51:30.204Z,94935.38
2022-11-28T07:53:58.374Z,94928.38
2022-11-28T07:56:39.414Z,94925.50
2022-11-28T07:59:18.606Z,94912.50
2022-11-28T08:01:46.672Z,94924.81
2022-11-28T08:04:14.553Z,94929.09
2022-11-28T08:06:44.353Z,94931.44
2022-11-28T08:09:13.026Z,94918.78
2022-11-28T08:11:41.804Z,94945.56
2022-11-28T08:14:09.993Z,94938.53
2022-11-28T08:16:41.338Z,94936.88
2022-11-28T08:19:09.424Z,94952.25
2022-11-28T08:21:38.488Z,94930.25
2022-11-28T08:24:08.008Z,94947.34
2022-11-28T08:26:37.554Z,94947.16
2022-11-28T08:29:06.451Z,94944.22
2022-11-28T08:31:36.571Z,94929.16
2022-11-28T08:34:07.636Z,94927.47
2022-11-28T08:36:35.836Z,94934.84
2022-11-28T08:41:53.494Z,94939.81
2022-11-28T08:44:21.352Z,94930.72
2022-11-28T08:46:49.215Z,94932.69
2022-11-28T08:49:18.550Z,94929.31
2022-11-28T08:51:47.475Z,94933.25
2022-11-28T08:54:15.277Z,94939.22
2022-11-28T08:56:46.276Z,94937.56
2022-11-28T08:59:14.117Z,94938.31
2022-11-28T09:01:41.981Z,94941.06
2022-11-28T09:04:09.908Z,94941.44
2022-11-28T09:06:41.012Z,94948.66
2022-11-28T09:09:09.155Z,94953.06
2022-11-28T09:11:36.990Z,94953.53
2022-11-28T09:14:04.853Z,94951.59
2022-11-28T09:16:32.815Z,94947.59
2022-11-28T09:19:01.123Z,94951.66
2022-11-28T09:21:29.811Z,94945.53
2022-11-28T09:24:00.162Z,94960.41
2022-11-28T09:26:29.873Z,94956.41
2022-11-28T09:28:57.842Z,94958.59
2022-11-28T09:31:26.109Z,94958.66
2022-11-28T09:33:54.748Z,94952.59
2022-11-28T09:36:24.702Z,94959.63
2022-11-28T09:38:52.883Z,94957.00
2022-11-28T09:41:42.626Z,94967.03
2022-11-28T09:44:20.104Z,94969.56
2022-11-28T09:46:51.046Z,94967.41
2022-11-28T09:49:36.809Z,94962.38
2022-11-28T09:52:23.130Z,94957.88
2022-11-28T09:54:57.882Z,94959.91
2022-11-28T09:57:33.015Z,94958.75
2022-11-28T10:03:29.753Z,94961.66
2022-11-28T10:06:08.377Z,94948.47
2022-11-28T10:08:44.992Z,94951.09
2022-11-28T10:11:27.615Z,94942.66
2022-11-28T10:14:08.907Z,94950.72
2022-11-28T10:16:46.753Z,94950.16
2022-11-28T10:19:46.088Z,94946.28
2022-11-28T10:22:12.939Z,94957.25
2022-11-28T10:24:45.571Z,94946.47
2022-11-28T10:27:15.619Z,94948.72
2022-11-28T10:29:51.408Z,94941.38
2022-11-28T10:32:25.645Z,94946.19
2022-11-28T10:34:59.980Z,94940.78
2022-11-28T10:37:28.996Z,94943.81
2022-11-28T10:39:57.663Z,94926.31
2022-11-28T10:42:32.694Z,94924.41
2022-11-28T10:45:27.070Z,94932.25
2022-11-28T10:48:38.605Z,94926.50
2022-11-28T10:51:12.410Z,94927.63
2022-11-28T10:53:49.116Z,94922.88
2022-11-28T10:56:33.242Z,94930.06
2022-11-28T10:59:12.099Z,94923.69
2022-11-28T11:01:45.962Z,94928.53
2022-11-28T11:04:20.746Z,94919.03
2022-11-28T11:07:11.244Z,94920.78
2022-11-28T11:09:44.107Z,94918.00
2022-11-28T11:12:19.997Z,94925.41
2022-11-28T11:14:48.655Z,94932.25
2022-11-28T11:17:35.475Z,94922.19
2022-11-28T11:20:20.184Z,94927.66
2022-11-28T11:22:56.209Z,94932.81
2022-11-28T11:25:28.158Z,94923.63
2022-11-28T11:28:01.895Z,94915.47
2022-11-28T11:30:32.522Z,94930.47
2022-11-28T11:33:04.969Z,94926.09
2022-11-28T11:35:37.072Z,94927.94
2022-11-28T11:38:19.908Z,94918.72
2022-11-28T11:40:48.363Z,94924.22
2022-11-28T11:43:28.773Z,94922.03
2022-11-28T11:46:08.017Z,94922.91
2022-11-28T11:48:39.156Z,94925.94
2022-11-28T11:51:07.869Z,94914.78
2022-11-28T11:53:35.725Z,94913.81
2022-11-28T11:56:04.716Z,94901.50
2022-11-28T11:58:41.567Z,94909.66
2022-11-28T12:01:12.328Z,94902.38
2022-11-28T12:03:49.671Z,94905.56
2022-11-28T12:06:26.642Z,94910.13
2022-11-28T12:09:02.691Z,94907.34
2022-11-28T12:11:35.274Z,94901.53
2022-11-28T12:14:15.452Z,94910.44
2022-11-28T12:16:50.258Z,94909.59
2022-11-28T12:19:29.773Z,94906.69
2022-11-28T12:22:13.134Z,94900.00
2022-11-28T12:24:51.954Z,94907.31
2022-11-28T12:27:32.001Z,94903.34
2022-11-28T12:30:15.677Z,94906.75
2022-11-28T12:32:54.828Z,94905.28
2022-11-28T12:35:36.510Z,94901.22
2022-11-28T12:38:14.848Z,94898.78
2022-11-28T12:40:56.424Z,94900.63
2022-11-28T12:43:38.967Z,94898.25
2022-11-28T12:46:18.318Z,94900.63
2022-11-28T12:49:00.963Z,94900.00
2022-11-28T12:51:41.074Z,94898.97
2022-11-28T12:54:30.941Z,94889.84
2022-11-28T12:57:08.280Z,94898.34
2022-11-28T12:59:44.088Z,94895.38
2022-11-28T13:02:28.264Z,94901.53
2022-11-28T13:05:15.896Z,94898.09
2022-11-28T13:07:59.608Z,94891.97
2022-11-28T13:10:33.045Z,94884.63
2022-11-28T13:13:06.926Z,94887.34
2022-11-28T13:15:48.890Z,94887.94
2022-11-28T13:18:31.392Z,94890.50
2022-11-28T13:21:04.873Z,94896.41
2022-11-28T13:23:42.621Z,94897.78
2022-11-28T13:26:16.643Z,94904.41
2022-11-28T13:28:50.225Z,94889.88
2022-11-28T13:31:26.503Z,94892.09
2022-11-28T13:33:55.922Z,94891.28
2022-11-28T13:39:31.919Z,94887.41
2022-11-28T13:42:43.930Z,94887.78
2022-11-28T13:45:01.698Z,94883.22
2022-11-28T13:47:34.911Z,94881.63
2022-11-28T13:50:35.397Z,94885.94
2022-11-28T13:53:20.021Z,94885.16
2022-11-28T13:55:50.426Z,94882.34
2022-11-28T13:58:22.577Z,94890.19
2022-11-28T14:01:10.323Z,94881.41
2022-11-28T14:03:46.964Z,94886.50
2022-11-28T14:06:17.148Z,94878.78
2022-11-28T14:08:50.102Z,94891.16
2022-11-28T14:11:51.513Z,94890.72
2022-11-28T14:14:44.672Z,94889.88
2022-11-28T14:17:29.736Z,94887.06
2022-11-28T14:20:16.512Z,94892.69
2022-11-28T14:22:58.380Z,94890.31
2022-11-28T14:25:31.552Z,94888.47
2022-11-28T14:28:02.631Z,94889.19
2022-11-28T14:30:38.227Z,94882.88
2022-11-28T14:33:16.964Z,94888.13
2022-11-28T14:36:23.268Z,94891.38
2022-11-28T14:39:32.997Z,94892.16
2022-11-28T14:42:59.613Z,94891.72
2022-11-28T14:45:45.556Z,94899.53
2022-11-28T14:48:20.088Z,94894.78
2022-11-28T14:50:53.489Z,94902.53
2022-11-28T14:53:45.624Z,94897.97
2022-11-28T14:56:29.076Z,94896.03
2022-11-28T14:59:03.495Z,94893.31
2022-11-28T15:01:44.173Z,94892.53
2022-11-28T15:04:39.576Z,94903.22
2022-11-28T15:07:25.078Z,94898.66
2022-11-28T15:10:07.416Z,94892.41
2022-11-28T15:12:45.645Z,94896.09
2022-11-28T15:15:17.012Z,94891.34
2022-11-28T15:17:52.401Z,94893.28
2022-11-28T15:20:25.884Z,94883.28
2022-11-28T15:22:53.840Z,94883.78
2022-11-28T15:25:23.747Z,94884.56
2022-11-28T15:27:54.208Z,94885.34
2022-11-28T15:30:26.248Z,94875.34
2022-11-28T15:33:00.804Z,94883.59
2022-11-28T15:35:29.528Z,94886.94
2022-11-28T15:37:59.365Z,94879.81
2022-11-28T15:40:30.415Z,94884.91
2022-11-28T15:42:59.799Z,94879.81
2022-11-28T15:45:30.123Z,94876.66
2022-11-28T15:47:59.930Z,94877.91
2022-11-28T15:50:30.237Z,94879.66
2022-11-28T15:52:59.496Z,94872.53
2022-11-28T15:55:30.308Z,94875.53
2022-11-28T15:58:13.405Z,94876.31
2022-11-28T16:00:45.115Z,94873.94
2022-11-28T16:03:18.796Z,94870.50
2022-11-28T16:05:48.239Z,94876.22
2022-11-28T16:08:28.460Z,94863.81
2022-11-28T16:10:57.052Z,94872.59
2022-11-28T16:13:25.515Z,94873.22
2022-11-28T16:15:55.997Z,94871.63
2022-11-28T16:18:28.614Z,94866.53
2022-11-28T16:20:58.087Z,94870.31
2022-11-28T16:23:30.589Z,94873.66
2022-11-28T16:26:03.560Z,94865.50
2022-11-28T16:28:33.523Z,94869.13
2022-11-28T16:31:01.579Z,94866.91
2022-11-28T16:33:39.068Z,94859.19
2022-11-28T16:36:12.694Z,94855.69
2022-11-28T16:38:41.159Z,94856.81
2022-11-28T16:41:16.315Z,94856.00
2022-11-28T16:43:47.357Z,94851.09
2022-11-28T16:46:21.156Z,94854.44
2022-11-28T16:48:54.668Z,94856.00
2022-11-28T16:51:37.407Z,94855.56
2022-11-28T16:54:29.039Z,94850.66
2022-11-28T16:57:14.517Z,94849.84
2022-11-28T16:59:52.702Z,94852.94
2022-11-28T17:02:23.465Z,94857.25
2022-11-28T17:04:54.506Z,94852.06
2022-11-28T17:07:23.507Z,94857.13
2022-11-28T17:09:52.217Z,94861.72
2022-11-28T17:12:26.344Z,94845.38
2022-11-28T17:14:54.794Z,94859.50
2022-11-28T17:17:24.675Z,94844.88
2022-11-28T17:19:53.835Z,94847.25
2022-11-28T17:22:24.509Z,94847.91
2022-11-28T17:24:59.091Z,94846.84
2022-11-28T17:27:27.167Z,94845.34
2022-11-28T17:29:55.183Z,94840.78
2022-11-28T17:32:23.041Z,94851.47
2022-11-28T17:34:50.931Z,94848.13
2022-11-28T17:37:20.179Z,94845.13
2022-11-28T17:40:01.947Z,94845.91
2022-11-28T17:42:30.035Z,94839.50
2022-11-28T17:44:58.288Z,94851.00
2022-11-28T17:47:27.553Z,94843.22
2022-11-28T17:49:56.517Z,94848.75
2022-11-28T17:52:30.347Z,94848.06
2022-11-28T17:55:07.086Z,94852.19
2022-11-28T17:57:35.640Z,94857.09
2022-11-28T18:00:08.384Z,94859.47
2022-11-28T18:02:42.254Z,94852.00
2022-11-28T18:05:10.897Z,94862.09
2022-11-28T18:07:41.924Z,94866.44
2022-11-28T18:10:12.577Z,94862.19
2022-11-28T18:12:40.449Z,94860.88
2022-11-28T18:15:10.175Z,94861.50
2022-11-28T18:17:38.563Z,94865.47
2022-11-28T18:20:07.994Z,94859.88
2022-11-28T18:22:35.873Z,94849.88
2022-11-28T18:25:05.872Z,94860.56
2022-11-28T18:27:33.966Z,94854.22
2022-11-28T18:30:01.884Z,94856.44
2022-11-28T18:32:29.687Z,94852.31
2022-11-28T18:34:58.344Z,94849.06
2022-11-28T18:37:28.571Z,94851.31
2022-11-28T18:39:56.414Z,94844.75
2022-11-28T18:42:25.569Z,94848.88
2022-11-28T18:44:53.427Z,94848.81
2022-11-28T18:47:21.253Z,94850.66
2022-11-28T18:49:49.091Z,94850.31
2022-11-28T18:52:17.136Z,94852.00
2022-11-28T18:54:44.978Z,94856.28
2022-11-28T18:57:13.092Z,94853.56
2022-11-28T18:59:46.244Z,94860.06
2022-11-28T19:02:19.510Z,94850.72
2022-11-28T19:04:48.341Z,94844.81
2022-11-28T19:07:16.580Z,94864.47
2022-11-28T19:09:45.496Z,94850.44
2022-11-28T19:12:14.421Z,94856.88
2022-11-28T19:14:43.734Z,94856.38
2022-11-28T19:17:12.157Z,94855.69
2022-11-28T19:19:41.494Z,94858.31
2022-11-28T19:22:09.518Z,94859.56
2022-11-28T19:24:37.906Z,94860.69
2022-11-28T19:27:10.929Z,94862.00
2022-11-28T19:29:44.408Z,94869.38
2022-11-28T19:32:12.650Z,94858.75
2022-11-28T19:34:40.628Z,94862.09
2022-11-28T19:37:08.423Z,94861.13
2022-11-28T19:39:36.944Z,94862.72
2022-11-28T19:42:04.950Z,94858.41
2022-11-28T19:44:33.156Z,94854.47
2022-11-28T19:47:02.867Z,94854.47
2022-11-28T19:49:30.870Z,94855.88
2022-11-28T19:51:58.852Z,94863.16
2022-11-28T19:54:26.933Z,94865.09
2022-11-28T19:56:56.227Z,94859.53
2022-11-28T19:59:24.181Z,94851.56
2022-11-28T20:01:53.827Z,94856.13
2022-11-28T20:04:24.388Z,94868.50
2022-11-28T20:06:52.323Z,94858.91
2022-11-28T20:09:20.465Z,94863.16
2022-11-28T20:11:48.895Z,94865.09
2022-11-28T20:14:18.726Z,94878.22
2022-11-28T20:16:47.160Z,94872.09
2022-11-28T20:19:17.703Z,94876.84
2022-11-28T20:21:47.591Z,94873.69
2022-11-28T20:24:16.724Z,94877.81
2022-11-28T20:26:46.927Z,94874.81
2022-11-28T20:29:17.328Z,94873.22
2022-11-28T20:31:48.596Z,94869.25
2022-11-28T20:34:18.743Z,94872.59
2022-11-28T20:36:54.409Z,94860.84
2022-11-28T20:39:22.813Z,94877.69
2022-11-28T20:41:50.642Z,94865.97
2022-11-28T20:44:18.965Z,94873.44
2022-11-28T20:46:49.470Z,94882.03
2022-11-28T20:49:17.326Z,94864.94
2022-11-28T20:51:45.772Z,94879.81
2022-11-28T20:54:15.407Z,94888.41
2022-11-28T20:57:18.982Z,94879.97
2022-11-28T20:59:32.584Z,94885.06
2022-11-28T21:02:00.678Z,94879.19
2022-11-28T21:04:28.888Z,94886.66
2022-11-28T21:06:56.930Z,94877.44
2022-11-28T21:09:26.409Z,94883.69
2022-11-28T21:11:59.276Z,94882.44
2022-11-28T21:14:29.344Z,94886.03
2022-11-28T21:16:57.915Z,94878.59
2022-11-28T21:19:25.987Z,94878.75
2022-11-28T21:21:54.296Z,94885.44
2022-11-28T21:24:22.207Z,94885.47
2022-11-28T21:26:54.292Z,94878.66
2022-11-28T21:29:24.550Z,94883.84
2022-11-28T21:31:53.617Z,94882.53
2022-11-28T21:34:22.471Z,94886.66
2022-11-28T21:36:50.377Z,94884.28
2022-11-28T21:39:21.889Z,94879.88
2022-11-28T21:41:52.042Z,94879.59
2022-11-28T21:44:20.220Z,94883.56
2022-11-28T21:46:48.065Z,94876.25
2022-11-28T21:49:15.870Z,94879.31
2022-11-28T21:51:43.690Z,94890.69
2022-11-28T21:54:12.944Z,94879.66
2022-11-28T21:56:41.027Z,94876.72
2022-11-28T21:59:10.658Z,94868.69
2022-11-28T22:01:40.611Z,94862.19
2022-11-28T22:04:10.623Z,94880.69
2022-11-28T22:06:39.587Z,94883.44
2022-11-28T22:09:09.869Z,94881.38
2022-11-28T22:11:40.320Z,94880.44
2022-11-28T22:14:08.483Z,94880.56
2022-11-28T22:16:38.131Z,94881.56
2022-11-28T22:19:06.539Z,94876.06
2022-11-28T22:21:54.344Z,94880.94
2022-11-28T22:24:24.364Z,94880.44
2022-11-28T22:26:52.253Z,94879.97
2022-11-28T22:29:20.180Z,94886.41
2022-11-28T22:31:51.076Z,94886.50
2022-11-28T22:34:19.534Z,94884.81
2022-11-28T22:36:47.454Z,94882.16
2022-11-28T22:39:15.520Z,94882.44
2022-11-28T22:41:43.821Z,94877.19
2022-11-28T22:44:12.541Z,94875.53
2022-11-28T22:46:40.501Z,94875.09
2022-11-28T22:49:16.219Z,94878.41
2022-11-28T22:51:44.211Z,94877.00
2022-11-28T22:54:14.177Z,94870.00
2022-11-28T22:56:42.306Z,94876.06
2022-11-28T22:59:13.114Z,94872.44
2022-11-28T23:01:43.368Z,94874.72
2022-11-28T23:04:12.693Z,94869.47
2022-11-28T23:06:40.487Z,94869.16
2022-11-28T23:09:09.699Z,94866.59
2022-11-28T23:11:39.549Z,94867.56
2022-11-28T23:14:09.178Z,94864.22
2022-11-28T23:16:38.603Z,94866.78
2022-11-28T23:19:10.795Z,94867.56
2022-11-28T23:21:42.562Z,94866.94
2022-11-28T23:24:13.999Z,94857.38
2022-11-28T23:26:41.843Z,94860.09
2022-11-28T23:29:10.606Z,94854.75
2022-11-28T23:31:41.819Z,94864.41
2022-11-28T23:34:10.824Z,94856.59
2022-11-28T23:36:43.096Z,94864.69
2022-11-28T23:39:13.087Z,94861.84
2022-11-28T23:41:41.211Z,94866.16
2022-11-28T23:44:11.195Z,94867.28
2022-11-28T23:46:40.246Z,94866.06
2022-11-28T23:49:08.175Z,94866.47
2022-11-28T23:51:36.567Z,94863.44
2022-11-28T23:54:06.048Z,94870.00
2022-11-28T23:56:36.761Z,94863.44
2022-11-28T23:59:07.520Z,94871.94
